Home > Products > Valid Products > TAF

000
FTUS45 KFGZ 182300
TAFPGA
TAF
KPGA 182334Z 1900/1924 35005KT P6SM FEW090
     FM190100 VRB04KT P6SM FEW100
     FM192200 34006KT P6SM SKC=



000
FTUS45 KFGZ 182300
TAFFLG
TAF
KFLG 182334Z 1900/1924 06007KT P6SM VCSH SCT045 BKN060
     FM190200 00000KT P6SM SCT035
     FM191600 23007KT P6SM SCT050
     FM192000 25006KT P6SM BKN050=



000
FTUS45 KFGZ 182300
TAFINW
TAF
KINW 182334Z 1900/1924 VRB06KT P6SM SCT090
     FM190200 16007KT P6SM FEW100
     FM191600 VRB05KT P6SM FEW150
     FM192000 32007KT P6SM FEW150=



000
FTUS45 KFGZ 182200 AAA
TAFFLG
TAF AMD
KFLG 182249Z 1823/1918 06007KT P6SM VCSH SCT040 BKN050
      TEMPO 1823/1824 VRB10G20KT TS BKN040CB
     FM190200 00000KT P6SM SCT035
     FM191600 23007KT P6SM SCT050=



000
FTUS45 KFGZ 181700
TAFPGA
TAF
KPGA 181739Z 1818/1918 VRB05KT P6SM SKC
     FM182100 06005KT P6SM SCT100
     FM190100 VRB04KT P6SM FEW100=



000
FTUS45 KFGZ 181700
TAFFLG
TAF
KFLG 181739Z 1818/1918 06007KT P6SM SCT060
     FM182000 06007KT P6SM VCSH SCT040 BKN050
     FM190200 00000KT P6SM SCT035
     FM191600 23007KT P6SM SCT050=



000
FTUS45 KFGZ 181700
TAFINW
TAF
KINW 181739Z 1818/1918 VRB03KT P6SM FEW045
     FM181900 07006KT P6SM FEW050 SCT100
     FM190200 16007KT P6SM FEW100
     FM191600 VRB05KT P6SM FEW150=



000
FTUS45 KFGZ 181100
TAFINW
TAF
KINW 181120Z 1812/1912 VRB03KT P6SM FEW045
     FM181900 VRB06KT P6SM FEW050 SCT100=



000
FTUS45 KFGZ 181100
TAFFLG
TAF
KFLG 181120Z 1812/1912 VRB03KT P6SM FEW020
     FM182000 VRB05KT P6SM VCSH SCT025 BKN040
     FM190200 00000KT P6SM FEW025 BKN040=



000
FTUS45 KFGZ 181100
TAFPGA
TAF
KPGA 181120Z 1812/1912 VRB05KT P6SM SKC
     FM182100 VRB05KT P6SM BKN100=



000
FTUS45 KFGZ 180500
TAFFLG
TAF
KFLG 180520Z 1806/1906 07005KT P6SM FEW050
     FM181600 VRB06KT P6SM VCSH SCT015 OVC040
      TEMPO 1818/1822 5SM TSRA OVC010CB
     FM182200 23008KT P6SM VCSH SCT030 BKN060=



000
FTUS45 KFGZ 180500
TAFPGA
TAF
KPGA 180520Z 1806/1906 VRB02KT P6SM FEW150
     FM182000 02005KT P6SM SCT100=



000
FTUS45 KFGZ 180500
TAFINW
TAF
KINW 180520Z 1806/1906 VRB03KT P6SM SCT060
     FM181900 03006KT P6SM SCT070 BKN100
      TEMPO 1820/1824 5SM -TSRA BKN050CB=



000
FTUS45 KFGZ 180100 AAA
TAFINW
TAF AMD
KINW 180111Z 1801/1824 21012KT P6SM FEW035 BKN150
     FM181900 03006KT P6SM SCT070 BKN100
      TEMPO 1820/1824 5SM -TSRA BKN050CB=



000
FTUS45 KFGZ 180100 AAA
TAFFLG
TAF AMD
KFLG 180111Z 1801/1824 07005KT P6SM FEW025 OVC080
      TEMPO 1801/1803 -SHRA BKN025
     FM181600 VRB06KT P6SM VCSH SCT015 OVC040
      TEMPO 1818/1822 3SM TSRA OVC010CB
     FM182200 23008KT P6SM VCSH SCT030 BKN060=



000
FTUS45 KFGZ 172300 CCA
TAFFLG
TAF COR
KFLG 172326Z 1800/1824 07005KT P6SM FEW015 SCT090
      TEMPO 1800/1803 5SM -SHRA BKN015 OVC080
     FM181600 VRB06KT P6SM VCSH SCT015 OVC040
      TEMPO 1818/1822 3SM TSRA OVC010CB
     FM182200 23008KT P6SM VCSH SCT030 BKN060=



000
FTUS45 KFGZ 172300
TAFPGA
TAF
KPGA 172323Z 1800/1824 VRB06KT P6SM SCT080 OVC150
      TEMPO 1800/1801 VRB10G20KT TSRA BKN080CB OVC100
     FM180200 VRB02KT P6SM FEW150
     FM182000 02005KT P6SM SCT100=



000
FTUS45 KFGZ 172300
TAFFLG
TAF
KFLG 172323Z 1800/1824 07005KT P6SM FEW015 SCT090
      TEMPO 1800/1803 5SM -SHRA BKN007 BKN015
     FM181600 VRB06KT P6SM VCSH SCT015 OVC040
      TEMPO 1818/1822 3SM TSRA OVC010CB
     FM182200 23008KT P6SM VCSH SCT030 BKN060=



000
FTUS45 KFGZ 172300
TAFINW
TAF
KINW 172323Z 1800/1824 10006KT P6SM FEW035 BKN150
     FM181900 03006KT P6SM SCT070 BKN100
      TEMPO 1820/1824 5SM -TSRA BKN050CB=



000
FTUS45 KFGZ 171700
TAFPGA
TAF
KPGA 171740Z 1718/1818 VRB06KT P6SM SCT120 OVC150
     FM172000 11010KT P6SM SCT120 OVC150
     FM180200 VRB05KT P6SM SCT120=



000
FTUS45 KFGZ 171700
TAFFLG
TAF
KFLG 171740Z 1718/1818 07005KT P6SM VCSH SCT015 OVC060
      TEMPO 1718/1722 5SM -SHRA BKN007 BKN015
     FM172200 VRB06KT 5SM -SHRA BKN015 OVC025
      TEMPO 1722/1802 3SM TSRA OVC010CB
     FM181500 VRB05KT P6SM VCSH BKN015 OVC040=



000
FTUS45 KFGZ 171700
TAFINW
TAF
KINW 171740Z 1718/1818 10006KT 6SM -SHRA SCT007 SCT045 OVC090
      TEMPO 1718/1722 5SM -SHRA BKN045 OVC080
     FM172200 12010KT P6SM VCSH SCT030 OVC080
      TEMPO 1722/1802 5SM -TSRA BKN030CB
     FM181600 VRB05KT P6SM OVC100=



000
FTUS45 KFGZ 171500 AAB
TAFINW
TAF AMD
KINW 171537Z 1716/1812 VRB05KT P6SM VCSH BKN035 OVC090
      TEMPO 1716/1718 5SM -SHRA BKN040 OVC080
     FM171800 10010KT P6SM VCSH SCT030 OVC100
      TEMPO 1721/1801 5SM -TSRA BKN030CB OVC100
     FM180300 VRB05KT P6SM OVC100=



000
FTUS45 KFGZ 171400 AAA
TAFFLG
TAF AMD
KFLG 171420Z 1714/1812 VRB04KT P6SM VCSH SCT040 OVC060
      TEMPO 1714/1717 5SM -SHRA BKN040
     FM171700 VRB06KT 5SM -SHRA BKN025 OVC040
      TEMPO 1719/1723 3SM TSRA OVC020CB
     FM180300 VRB05KT P6SM VCSH SCT025 OVC080=



000
FTUS45 KFGZ 171400 AAA
TAFINW
TAF AMD
KINW 171419Z 1714/1812 VRB05KT P6SM VCSH BKN035 OVC090
      TEMPO 1714/1718 6SM -SHRA BKN040 OVC080
     FM171800 10010KT P6SM VCSH SCT030 OVC100
      TEMPO 1721/1801 5SM -TSRA BKN030CB OVC100
     FM180300 VRB05KT P6SM OVC100=



000
FTUS45 KFGZ 171100
TAFPGA
TAF
KPGA 171135Z 1712/1812 VRB06KT P6SM SCT120 OVC150
     FM172000 11010KT P6SM SCT120 OVC150
     FM180200 VRB05KT P6SM SCT120=



000
FTUS45 KFGZ 171100
TAFINW
TAF
KINW 171135Z 1712/1812 VRB05KT P6SM VCSH BKN035 OVC090
      TEMPO 1714/1718 6SM -SHRA OVC030
     FM171800 10010KT P6SM VCSH SCT030 OVC100
      TEMPO 1721/1801 5SM -TSRA BKN030CB OVC100
     FM180300 VRB05KT P6SM OVC100=



000
FTUS45 KFGZ 171100
TAFFLG
TAF
KFLG 171135Z 1712/1812 VRB04KT P6SM VCSH SCT050 BKN080
      TEMPO 1713/1717 5SM -SHRA BKN030
     FM171700 VRB06KT 5SM -SHRA BKN025 OVC040
      TEMPO 1719/1723 3SM TSRA OVC020CB
     FM180300 VRB05KT P6SM VCSH SCT025 OVC080=



000
FTUS45 KFGZ 171000 AAA
TAFFLG
TAF AMD
KFLG 171015Z 1710/1806 VRB04KT P6SM VCSH SCT050 BKN080
      TEMPO 1710/1714 5SM -SHRA BKN040
     FM171400 09008KT P6SM OVC060
      TEMPO 1716/1720 4SM -TSRA BKN030CB
     FM172000 VRB06KT P6SM -SHRA BKN040=



000
FTUS45 KFGZ 170800 AAA
TAFPGA
TAF AMD
KPGA 170800Z 1708/1806 VRB05KT P6SM BKN200
     FM171200 VRB06KT P6SM BKN100=



000
FTUS45 KFGZ 170500
TAFPGA
TAF
KPGA 170538Z 1706/1806 21012KT P6SM BKN200
     FM171200 VRB06KT P6SM BKN100=



000
FTUS45 KFGZ 170500
TAFFLG
TAF
KFLG 170538Z 1706/1806 22006KT P6SM VCSH BKN050 OVC100
      TEMPO 1706/1710 -SHRA BKN050
     FM171000 VRB04KT P6SM BKN040
      TEMPO 1710/1714 4SM -TSRA BKN030CB
     FM171400 09008KT P6SM OVC060
      TEMPO 1716/1720 4SM -TSRA BKN030CB
     FM172000 VRB06KT P6SM -SHRA BKN040=



000
FTUS45 KFGZ 170500
TAFINW
TAF
KINW 170538Z 1706/1806 12008KT P6SM SCT060 BKN200
      TEMPO 1706/1710 -SHRA BKN060
     FM171200 11012KT P6SM SCT050 OVC090 PROB30 1715/1721 4SM -TSRA
      BKN040CB
     FM172100 VRB06KT P6SM SCT060
      TEMPO 1721/1801 -SHRA BKN050=



000
FTUS45 KFGZ 170200 CCA
TAFFLG
TAF COR
KFLG 170251Z 1703/1724 22006KT P6SM VCSH BKN050 OVC100
      TEMPO 1703/1706 TSRA BKN050CB
     FM170800 VRB04KT P6SM BKN040
      TEMPO 1710/1714 4SM -TSRA BKN030CB
     FM171400 09008KT P6SM OVC060
      TEMPO 1716/1720 4SM -TSRA BKN030CB=



000
FTUS45 KFGZ 170200 AAA
TAFFLG
TAF AMD
KFLG 170249Z 1703/1724 22006KT P6SM VCSH BKN050 OVC100
      TEMPO 1704/1706 TSRA BKN050CB
     FM170800 VRB04KT P6SM BKN040
      TEMPO 1710/1714 4SM -TSRA BKN030CB
     FM171400 09008KT P6SM OVC060
      TEMPO 1716/1720 4SM -TSRA BKN030CB=



000
FTUS45 KFGZ 170100 AAA
TAFPGA
TAF AMD
KPGA 170114Z 1701/1724 15012KT P6SM SCT060 SCT200
     FM170400 19006KT P6SM BKN200
     FM171200 VRB06KT P6SM BKN100=



000
FTUS45 KFGZ 162300
TAFINW
TAF
KINW 162334Z 1700/1724 14015G22KT P6SM VCSH SCT060 BKN110
     FM170200 16008KT P6SM SCT060 BKN100
     FM171200 11012KT P6SM SCT050 OVC090 PROB30 1715/1721 4SM -TSRA
      BKN040CB=



000
FTUS45 KFGZ 162300
TAFFLG
TAF
KFLG 162334Z 1700/1724 22006KT P6SM VCSH BKN050 OVC100
     FM170800 VRB04KT P6SM BKN040 PROB30 1709/1714 4SM -TSRA
      BKN030CB
     FM171400 09008KT P6SM OVC060
      TEMPO 1716/1720 4SM -TSRA BKN030CB=



000
FTUS45 KFGZ 162300
TAFPGA
TAF
KPGA 162334Z 1700/1724 04006KT P6SM SCT060 SCT200
     FM170400 19006KT P6SM BKN200
     FM171200 VRB06KT P6SM BKN100=



000
FTUS45 KFGZ 161700
TAFFLG
TAF
KFLG 161735Z 1618/1718 15008KT P6SM SCT050 BKN100
      TEMPO 1619/1623 VRB15G30KT 5SM TSRA BKN050CB
     FM170000 23005KT P6SM VCSH SCT050 OVC120
     FM170600 VRB05KT P6SM BKN070 PROB30 1706/1712 4SM -TSRA
      BKN030CB
     FM171200 09008KT P6SM OVC060 PROB30 1712/1718 4SM -TSRA
      BKN030CB=



000
FTUS45 KFGZ 161700
TAFINW
TAF
KINW 161735Z 1618/1718 10008KT P6SM SCT070 BKN120
     FM170000 14011KT P6SM VCSH SCT060 BKN110
     FM171200 11012KT P6SM OVC090 PROB30 1712/1718 4SM -TSRA
      BKN040CB=



000
FTUS45 KFGZ 161700
TAFPGA
TAF
KPGA 161735Z 1618/1718 04006KT P6SM FEW060 SCT200
     FM170400 19006KT P6SM BKN200
     FM171200 VRB06KT P6SM BKN100=



000
FTUS45 KFGZ 161100
TAFFLG
TAF
KFLG 161139Z 1612/1712 VRB03KT P6SM FEW110 FEW200
     FM161800 15008KT P6SM SCT050 SCT200
      TEMPO 1618/1622 VRB15G30KT 5SM TSRA BKN050CB
     FM170000 VRB05KT P6SM SCT050 OVC120 PROB30 1700/1706 4SM -TSRA
      BKN050CB
     FM170600 VRB02KT P6SM BKN050 PROB30 1706/1712 4SM -TSRA
      BKN030CB=



000
FTUS45 KFGZ 161100
TAFPGA
TAF
KPGA 161139Z 1612/1712 16006KT P6SM FEW120 FEW200
     FM170000 VRB05KT P6SM SCT100 BKN200=



000
FTUS45 KFGZ 161100
TAFINW
TAF
KINW 161139Z 1612/1712 VRB06KT P6SM FEW100 SCT200
     FM161900 11008KT P6SM SCT080 BKN200 PROB30 1621/1702 VRB15G32KT
      6SM TSRA BKN070CB
     FM170200 13006KT P6SM SCT060 OVC200=



000
FTUS45 KFGZ 160500
TAFPGA
TAF
KPGA 160535Z 1606/1706 16006KT P6SM FEW120 FEW200=



000
FTUS45 KFGZ 160500
TAFFLG
TAF
KFLG 160535Z 1606/1706 VRB03KT P6SM FEW110 FEW200
     FM161800 13008KT P6SM SCT050 SCT200
      TEMPO 1618/1622 VRB15G30KT 5SM TSRA BKN050CB
     FM170000 VRB04KT P6SM SCT050 OVC120 PROB30 1700/1706 4SM -TSRA
      BKN050CB=



000
FTUS45 KFGZ 160500
TAFINW
TAF
KINW 160535Z 1606/1706 VRB06KT P6SM FEW100 SCT200
     FM161900 08008KT P6SM SCT080 BKN200
      TEMPO 1620/1624 VRB15G32KT 6SM TSRA BKN070CB
     FM170200 13006KT P6SM FEW060 OVC200=



    US Dept of Commerce
    National Oceanic and Atmospheric Administration
    National Weather Service
    1325 East West Highway
    Silver Spring, MD 20910
    Page Author: NWS Internet Services Team
Disclaimer
Information Quality
Credits
Glossary
Privacy Policy
Freedom of Information Act (FOIA)
About Us
Career Opportunities